Time,TemperatureF,DewpointF,PressureIn,WindDirection,WindDirectionDegrees,WindSpeedMPH,WindSpeedGustMPH,Humidity,HourlyPrecipIn,Conditions,Clouds,dailyrainin,SoftwareType,DateUTC
2013-03-13 00:02:00,31.0,31.0,-100.00,West,259,15.0,22.0,100,-99.99,,,-99.99,,2013-03-13 06:02:00,
2013-03-13 00:22:00,31.0,31.0,-100.00,West,259,15.0,24.0,100,-99.99,,,-99.99,,2013-03-13 06:22:00,
2013-03-13 00:32:00,30.0,30.0,-100.00,WSW,244,10.0,20.0,100,-99.99,,,-99.99,,2013-03-13 06:32:00,
2013-03-13 00:42:00,30.0,30.0,-100.00,WSW,244,10.0,20.0,100,-99.99,,,-99.99,,2013-03-13 06:42:00,
2013-03-13 00:52:00,31.0,31.0,-100.00,WSW,255,15.0,23.0,100,-99.99,,,-99.99,,2013-03-13 06:52:00,
2013-03-13 01:02:00,31.0,31.0,-100.00,West,261,15.0,23.0,100,-99.99,,,-99.99,,2013-03-13 07:02:00,
2013-03-13 01:22:00,32.0,32.0,-100.00,West,264,13.0,23.0,100,-99.99,,,-99.99,,2013-03-13 07:22:00,
2013-03-13 01:32:00,31.0,31.0,-100.00,West,271,9.0,16.0,100,-99.99,,,-99.99,,2013-03-13 07:32:00,
2013-03-13 01:52:00,31.0,31.0,-100.00,West,273,8.0,19.0,100,-99.99,,,-99.99,,2013-03-13 07:52:00,
2013-03-13 02:03:00,31.0,31.0,-100.00,WNW,283,6.0,16.0,100,-99.99,,,-99.99,,2013-03-13 08:03:00,
2013-03-13 02:22:00,31.0,31.0,-100.00,NW,312,4.0,13.0,100,-99.99,,,-99.99,,2013-03-13 08:22:00,
2013-03-13 02:32:00,31.0,31.0,-100.00,WSW,258,6.0,15.0,100,-99.99,,,-99.99,,2013-03-13 08:32:00,
2013-03-13 02:42:00,31.0,31.0,-100.00,WSW,258,6.0,15.0,100,-99.99,,,-99.99,,2013-03-13 08:42:00,
2013-03-13 02:53:00,30.0,30.0,-100.00,East,96,3.0,12.0,100,-99.99,,,-99.99,,2013-03-13 08:53:00,
2013-03-13 03:02:00,30.0,30.0,-100.00,SW,232,7.0,18.0,100,-99.99,,,-99.99,,2013-03-13 09:02:00,
2013-03-13 03:12:00,30.0,30.0,-100.00,SW,232,7.0,18.0,100,-99.99,,,-99.99,,2013-03-13 09:12:00,
2013-03-13 03:22:00,30.0,30.0,-100.00,ESE,110,4.0,11.0,100,-99.99,,,-99.99,,2013-03-13 09:22:00,
2013-03-13 03:32:00,30.0,30.0,-100.00,WNW,283,3.0,7.0,100,-99.99,,,-99.99,,2013-03-13 09:32:00,
2013-03-13 03:42:00,30.0,30.0,-100.00,WNW,283,3.0,7.0,100,-99.99,,,-99.99,,2013-03-13 09:42:00,
2013-03-13 03:52:00,30.0,30.0,-100.00,West,265,8.0,16.0,100,-99.99,,,-99.99,,2013-03-13 09:52:00,
2013-03-13 04:01:00,31.0,31.0,-100.00,West,262,7.0,14.0,100,-99.99,,,-99.99,,2013-03-13 10:01:00,
2013-03-13 04:11:00,31.0,31.0,-100.00,West,262,7.0,14.0,100,-99.99,,,-99.99,,2013-03-13 10:11:00,
2013-03-13 04:22:00,31.0,31.0,-100.00,West,265,7.0,13.0,100,-99.99,,,-99.99,,2013-03-13 10:22:00,
2013-03-13 04:32:00,31.0,31.0,-100.00,West,261,12.0,19.0,100,-99.99,,,-99.99,,2013-03-13 10:32:00,
2013-03-13 04:52:00,31.0,31.0,-100.00,WSW,251,12.0,18.0,100,-99.99,,,-99.99,,2013-03-13 10:52:00,
2013-03-13 05:02:00,31.0,31.0,-100.00,WSW,247,10.0,17.0,100,-99.99,,,-99.99,,2013-03-13 11:02:00,
2013-03-13 05:22:00,31.0,31.0,-100.00,SSW,202,7.0,15.0,100,-99.99,,,-99.99,,2013-03-13 11:22:00,
2013-03-13 05:32:00,31.0,31.0,-100.00,SW,223,7.0,17.0,100,-99.99,,,-99.99,,2013-03-13 11:32:00,
2013-03-13 05:52:00,31.0,31.0,-100.00,West,263,9.0,18.0,100,-99.99,,,-99.99,,2013-03-13 11:52:00,
2013-03-13 06:02:00,31.0,31.0,-100.00,West,264,7.0,17.0,100,-99.99,,,-99.99,,2013-03-13 12:02:00,
2013-03-13 06:22:00,31.0,31.0,-100.00,West,263,5.0,11.0,100,-99.99,,,-99.99,,2013-03-13 12:22:00,
2013-03-13 06:32:00,32.0,32.0,-100.00,West,269,9.0,18.0,100,-99.99,,,-99.99,,2013-03-13 12:32:00,
2013-03-13 06:53:00,32.0,32.0,-100.00,WSW,255,6.0,15.0,100,-99.99,,,-99.99,,2013-03-13 12:53:00,
2013-03-13 07:02:00,31.0,31.0,-100.00,WSW,247,4.0,14.0,100,-99.99,,,-99.99,,2013-03-13 13:02:00,
2013-03-13 07:11:00,31.0,31.0,-100.00,WSW,247,4.0,14.0,100,-99.99,,,-99.99,,2013-03-13 13:11:00,
2013-03-13 07:22:00,32.0,32.0,-100.00,West,265,11.0,19.0,100,-99.99,,,-99.99,,2013-03-13 13:22:00,
2013-03-13 07:32:00,32.0,32.0,-100.00,West,273,11.0,20.0,100,-99.99,,,-99.99,,2013-03-13 13:32:00,
2013-03-13 07:52:00,33.0,33.0,-100.00,West,272,12.0,20.0,100,-99.99,,,-99.99,,2013-03-13 13:52:00,
2013-03-13 08:02:00,33.0,33.0,-100.00,WNW,288,7.0,16.0,100,-99.99,,,-99.99,,2013-03-13 14:02:00,
2013-03-13 08:21:00,32.0,32.0,-100.00,WNW,284,5.0,13.0,100,-99.99,,,-99.99,,2013-03-13 14:21:00,
2013-03-13 08:33:00,32.0,32.0,-100.00,WNW,284,4.0,14.0,100,-99.99,,,-99.99,,2013-03-13 14:33:00,
2013-03-13 08:52:00,34.0,34.0,-100.00,WNW,286,6.0,14.0,100,-99.99,,,-99.99,,2013-03-13 14:52:00,
2013-03-13 09:02:00,36.0,36.0,-100.00,WNW,282,5.0,13.0,100,-99.99,,,-99.99,,2013-03-13 15:02:00,
2013-03-13 09:32:00,36.0,36.0,-100.00,West,277,7.0,14.0,99,-99.99,,,-99.99,,2013-03-13 15:32:00,
2013-03-13 09:52:00,36.0,36.0,-100.00,WNW,282,8.0,13.0,100,-99.99,,,-99.99,,2013-03-13 15:52:00,
2013-03-13 10:02:00,36.0,35.0,-100.00,WNW,282,6.0,11.0,98,-99.99,,,-99.99,,2013-03-13 16:02:00,
2013-03-13 10:22:00,38.0,34.0,-100.00,WNW,286,5.0,11.0,87,-99.99,,,-99.99,,2013-03-13 16:22:00,
2013-03-13 10:32:00,37.0,33.0,-100.00,West,271,7.0,12.0,86,-99.99,,,-99.99,,2013-03-13 16:32:00,
2013-03-13 10:52:00,37.0,34.0,-100.00,West,267,7.0,12.0,87,-99.99,,,-99.99,,2013-03-13 16:52:00,
2013-03-13 11:02:00,39.0,33.0,-100.00,West,269,5.0,13.0,80,-99.99,,,-99.99,,2013-03-13 17:02:00,
2013-03-13 11:22:00,40.0,33.0,-100.00,West,269,3.0,8.0,76,-99.99,,,-99.99,,2013-03-13 17:22:00,
2013-03-13 11:32:00,40.0,33.0,-100.00,WSW,252,4.0,11.0,76,-99.99,,,-99.99,,2013-03-13 17:32:00,
2013-03-13 11:53:00,39.0,31.0,-100.00,WSW,257,7.0,15.0,74,-99.99,,,-99.99,,2013-03-13 17:53:00,
2013-03-13 12:02:00,39.0,31.0,-100.00,West,268,6.0,12.0,74,-99.99,,,-99.99,,2013-03-13 18:02:00,
2013-03-13 12:12:00,39.0,31.0,-100.00,West,268,6.0,12.0,74,-99.99,,,-99.99,,2013-03-13 18:12:00,
2013-03-13 12:22:00,41.0,31.0,-100.00,West,262,3.0,9.0,68,-99.99,,,-99.99,,2013-03-13 18:22:00,
2013-03-13 12:32:00,44.0,31.0,-100.00,WNW,294,3.0,9.0,60,-99.99,,,-99.99,,2013-03-13 18:32:00,
2013-03-13 12:52:00,45.0,32.0,-100.00,West,275,4.0,9.0,60,-99.99,,,-99.99,,2013-03-13 18:52:00,
2013-03-13 13:02:00,41.0,39.0,-100.00,ESE,104,5.0,11.0,93,-99.99,,,-99.99,,2013-03-13 19:02:00,
2013-03-13 13:22:00,38.0,38.0,-100.00,ESE,120,6.0,10.0,100,-99.99,,,-99.99,,2013-03-13 19:22:00,
2013-03-13 13:32:00,38.0,38.0,-100.00,ESE,120,6.0,10.0,100,-99.99,,,-99.99,,2013-03-13 19:32:00,
2013-03-13 13:53:00,38.0,38.0,-100.00,SE,128,6.0,9.0,100,-99.99,,,-99.99,,2013-03-13 19:53:00,
2013-03-13 14:02:00,38.0,38.0,-100.00,ESE,122,8.0,12.0,100,-99.99,,,-99.99,,2013-03-13 20:02:00,
2013-03-13 14:22:00,38.0,38.0,-100.00,SE,130,10.0,13.0,100,-99.99,,,-99.99,,2013-03-13 20:22:00,
2013-03-13 14:32:00,39.0,39.0,-100.00,SSE,150,8.0,14.0,100,-99.99,,,-99.99,,2013-03-13 20:32:00,
2013-03-13 14:52:00,40.0,40.0,-100.00,SSE,165,6.0,13.0,99,-99.99,,,-99.99,,2013-03-13 20:52:00,
2013-03-13 15:02:00,40.0,40.0,-100.00,SSE,147,9.0,15.0,100,-99.99,,,-99.99,,2013-03-13 21:02:00,
2013-03-13 15:22:00,41.0,41.0,-100.00,SSE,152,5.0,11.0,100,-99.99,,,-99.99,,2013-03-13 21:22:00,
2013-03-13 15:32:00,41.0,41.0,-100.00,SE,140,7.0,11.0,99,-99.99,,,-99.99,,2013-03-13 21:32:00,
2013-03-13 15:52:00,43.0,29.0,-100.00,SW,228,4.0,10.0,58,-99.99,,,-99.99,,2013-03-13 21:52:00,
2013-03-13 16:02:00,43.0,33.0,-100.00,South,171,3.0,8.0,67,-99.99,,,-99.99,,2013-03-13 22:02:00,
2013-03-13 16:22:00,43.0,32.0,-100.00,SSE,161,4.0,13.0,65,-99.99,,,-99.99,,2013-03-13 22:22:00,
2013-03-13 16:32:00,44.0,33.0,-100.00,ENE,60,3.0,7.0,66,-99.99,,,-99.99,,2013-03-13 22:32:00,
2013-03-13 16:52:00,45.0,33.0,-100.00,NE,54,2.0,5.0,62,-99.99,,,-99.99,,2013-03-13 22:52:00,
2013-03-13 17:02:00,43.0,32.0,-100.00,ESE,114,4.0,8.0,65,-99.99,,,-99.99,,2013-03-13 23:02:00,
2013-03-13 17:22:00,41.0,32.0,-100.00,SE,129,6.0,8.0,70,-99.99,,,-99.99,,2013-03-13 23:22:00,
2013-03-13 17:32:00,40.0,31.0,-100.00,SE,136,7.0,10.0,71,-99.99,,,-99.99,,2013-03-13 23:32:00,
2013-03-13 17:52:00,40.0,32.0,-100.00,SE,140,8.0,11.0,74,-99.99,,,-99.99,,2013-03-13 23:52:00,
2013-03-13 18:02:00,40.0,35.0,-100.00,SE,136,9.0,14.0,81,-99.99,,,-99.99,,2013-03-14 00:02:00,
2013-03-13 18:22:00,39.0,35.0,-100.00,SE,137,9.0,13.0,86,-99.99,,,-99.99,,2013-03-14 00:22:00,
2013-03-13 18:32:00,40.0,36.0,-100.00,SE,133,7.0,9.0,85,-99.99,,,-99.99,,2013-03-14 00:32:00,
2013-03-13 18:52:00,39.0,34.0,-100.00,SE,137,8.0,10.0,82,-99.99,,,-99.99,,2013-03-14 00:52:00,
2013-03-13 19:02:00,39.0,35.0,-100.00,SE,135,8.0,10.0,84,-99.99,,,-99.99,,2013-03-14 01:02:00,
2013-03-13 19:22:00,39.0,35.0,-100.00,SE,135,6.0,8.0,85,-99.99,,,-99.99,,2013-03-14 01:22:00,
2013-03-13 19:32:00,38.0,34.0,-100.00,South,170,3.0,7.0,87,-99.99,,,-99.99,,2013-03-14 01:32:00,
2013-03-13 19:52:00,38.0,33.0,-100.00,SSE,157,3.0,5.0,83,-99.99,,,-99.99,,2013-03-14 01:52:00,
2013-03-13 20:02:00,38.0,30.0,-100.00,SSE,158,4.0,5.0,74,-99.99,,,-99.99,,2013-03-14 02:02:00,
2013-03-13 20:22:00,38.0,26.0,-100.00,South,191,4.0,7.0,61,-99.99,,,-99.99,,2013-03-14 02:22:00,
2013-03-13 20:32:00,38.0,25.0,-100.00,South,180,3.0,5.0,58,-99.99,,,-99.99,,2013-03-14 02:32:00,
2013-03-13 20:42:00,38.0,25.0,-100.00,South,180,3.0,5.0,58,-99.99,,,-99.99,,2013-03-14 02:42:00,
2013-03-13 20:52:00,38.0,25.0,-100.00,South,180,3.0,5.0,58,-99.99,,,-99.99,,2013-03-14 02:52:00,
2013-03-13 21:01:00,38.0,27.0,-100.00,SSW,196,3.0,7.0,64,-99.99,,,-99.99,,2013-03-14 03:01:00,
2013-03-13 21:12:00,38.0,27.0,-100.00,SSW,196,3.0,7.0,64,-99.99,,,-99.99,,2013-03-14 03:12:00,
2013-03-13 21:22:00,38.0,28.0,-100.00,SSE,159,4.0,9.0,66,-99.99,,,-99.99,,2013-03-14 03:22:00,
2013-03-13 21:32:00,37.0,26.0,-100.00,South,172,4.0,7.0,65,-99.99,,,-99.99,,2013-03-14 03:32:00,
2013-03-13 21:42:00,37.0,26.0,-100.00,South,172,4.0,7.0,65,-99.99,,,-99.99,,2013-03-14 03:42:00,
2013-03-13 21:52:00,37.0,27.0,-100.00,South,173,5.0,9.0,66,-99.99,,,-99.99,,2013-03-14 03:52:00,
2013-03-13 22:22:00,37.0,29.0,-100.00,South,181,8.0,11.0,72,-99.99,,,-99.99,,2013-03-14 04:22:00,
2013-03-13 22:32:00,37.0,28.0,-100.00,South,180,7.0,10.0,70,-99.99,,,-99.99,,2013-03-14 04:32:00,
2013-03-13 22:52:00,38.0,27.0,-100.00,South,180,6.0,10.0,65,-99.99,,,-99.99,,2013-03-14 04:52:00,
2013-03-13 23:02:00,38.0,25.0,-100.00,South,172,6.0,9.0,60,-99.99,,,-99.99,,2013-03-14 05:02:00,
2013-03-13 23:12:00,38.0,25.0,-100.00,South,172,6.0,9.0,60,-99.99,,,-99.99,,2013-03-14 05:12:00,
2013-03-13 23:22:00,38.0,22.0,-100.00,South,187,4.0,7.0,51,-99.99,,,-99.99,,2013-03-14 05:22:00,
2013-03-13 23:32:00,38.0,19.0,-100.00,South,176,4.0,6.0,46,-99.99,,,-99.99,,2013-03-14 05:32:00,
2013-03-13 23:42:00,38.0,19.0,-100.00,South,176,4.0,6.0,46,-99.99,,,-99.99,,2013-03-14 05:42:00,
2013-03-13 23:53:00,38.0,19.0,-100.00,South,184,5.0,8.0,46,-99.99,,,-99.99,,2013-03-14 05:53:00,